createdAt,value
2022-10-11T00:00:05.751Z,21.91
2022-10-11T00:00:15.744Z,21.91
2022-10-11T00:00:25.754Z,21.89
2022-10-11T00:00:35.742Z,21.91
2022-10-11T00:00:45.742Z,21.91
2022-10-11T00:00:55.788Z,21.91
2022-10-11T00:01:05.812Z,21.89
2022-10-11T00:01:15.844Z,21.91
2022-10-11T00:01:25.801Z,21.89
2022-10-11T00:01:35.788Z,21.90
2022-10-11T00:01:45.807Z,21.90
2022-10-11T00:01:55.733Z,21.93
2022-10-11T00:02:05.737Z,21.91
2022-10-11T00:02:15.736Z,21.93
2022-10-11T00:02:26.545Z,21.91
2022-10-11T00:02:35.755Z,21.93
2022-10-11T00:02:45.732Z,21.91
2022-10-11T00:02:55.728Z,21.91
2022-10-11T00:03:05.730Z,21.90
2022-10-11T00:03:15.722Z,21.91
2022-10-11T00:03:25.728Z,21.90
2022-10-11T00:03:35.722Z,21.89
2022-10-11T00:03:45.725Z,21.93
2022-10-11T00:03:55.731Z,21.91
2022-10-11T00:04:05.719Z,21.91
2022-10-11T00:04:15.718Z,21.89
2022-10-11T00:04:25.725Z,21.90
2022-10-11T00:04:35.713Z,21.90
2022-10-11T00:04:45.717Z,21.90
2022-10-11T00:04:55.723Z,21.90
2022-10-11T00:05:05.712Z,21.90
2022-10-11T00:05:15.710Z,21.93
2022-10-11T00:05:25.755Z,21.91
2022-10-11T00:05:35.709Z,21.89
2022-10-11T00:05:45.710Z,21.89
2022-10-11T00:05:55.704Z,21.91
2022-10-11T00:06:06.288Z,21.91
2022-10-11T00:06:15.705Z,21.90
2022-10-11T00:06:25.705Z,21.91
2022-10-11T00:06:35.702Z,21.90
2022-10-11T00:06:55.697Z,21.89
2022-10-11T00:07:05.702Z,21.90
2022-10-11T00:07:15.703Z,21.91
2022-10-11T00:07:25.699Z,21.91
2022-10-11T00:07:35.695Z,21.90
2022-10-11T00:07:45.712Z,21.90
2022-10-11T00:07:55.696Z,21.91
2022-10-11T00:08:05.700Z,21.90
2022-10-11T00:08:15.689Z,21.91
2022-10-11T00:08:25.690Z,21.90
2022-10-11T00:08:35.688Z,21.89
2022-10-11T00:08:45.686Z,21.91
2022-10-11T00:08:55.683Z,21.89
2022-10-11T00:09:05.685Z,21.89
2022-10-11T00:09:15.681Z,21.90
2022-10-11T00:09:25.685Z,21.90
2022-10-11T00:09:35.679Z,21.91
2022-10-11T00:09:45.685Z,21.90
2022-10-11T00:09:55.676Z,21.90
2022-10-11T00:10:05.679Z,21.90
2022-10-11T00:10:15.675Z,21.90
2022-10-11T00:10:25.676Z,21.90
2022-10-11T00:10:35.672Z,21.91
2022-10-11T00:10:45.673Z,21.90
2022-10-11T00:10:55.670Z,21.90
2022-10-11T00:11:05.676Z,21.90
2022-10-11T00:11:15.679Z,21.89
2022-10-11T00:11:25.671Z,21.90
2022-10-11T00:11:35.664Z,21.89
2022-10-11T00:11:55.662Z,21.90
2022-10-11T00:12:05.684Z,21.90
2022-10-11T00:12:30.209Z,21.90
2022-10-11T00:12:34.877Z,21.89
2022-10-11T00:12:44.873Z,21.89
2022-10-11T00:12:54.874Z,21.90
2022-10-11T00:13:04.867Z,21.90
2022-10-11T00:13:14.875Z,21.90
2022-10-11T00:13:24.868Z,21.93
2022-10-11T00:13:34.868Z,21.89
2022-10-11T00:13:44.866Z,21.90
2022-10-11T00:13:54.878Z,21.90
2022-10-11T00:14:04.862Z,21.86
2022-10-11T00:14:14.870Z,21.91
2022-10-11T00:14:24.858Z,21.89
2022-10-11T00:14:34.861Z,21.89
2022-10-11T00:14:44.868Z,21.90
2022-10-11T00:14:54.861Z,21.90
2022-10-11T00:15:04.854Z,21.91
2022-10-11T00:15:14.859Z,21.86
2022-10-11T00:15:24.862Z,21.90
2022-10-11T00:15:34.858Z,21.89
2022-10-11T00:15:44.852Z,21.89
2022-10-11T00:15:54.856Z,21.89
2022-10-11T00:16:05.164Z,21.89
2022-10-11T00:16:14.854Z,21.91
2022-10-11T00:16:24.846Z,21.89
2022-10-11T00:16:34.855Z,21.90
2022-10-11T00:16:44.846Z,21.91
2022-10-11T00:16:54.846Z,21.89
2022-10-11T00:17:04.841Z,21.91
2022-10-11T00:17:14.862Z,21.91
2022-10-11T00:17:24.837Z,21.90
2022-10-11T00:17:34.840Z,21.90
2022-10-11T00:17:44.838Z,21.93
2022-10-11T00:17:54.839Z,21.89
2022-10-11T00:18:05.551Z,21.89
2022-10-11T00:18:14.835Z,21.90
2022-10-11T00:18:24.832Z,21.90
2022-10-11T00:18:34.832Z,21.86
2022-10-11T00:18:44.839Z,21.90
2022-10-11T00:18:54.831Z,21.90
2022-10-11T00:19:04.827Z,21.90
2022-10-11T00:19:14.830Z,21.91
2022-10-11T00:19:24.828Z,21.89
2022-10-11T00:19:34.827Z,21.91
2022-10-11T00:19:44.836Z,21.89
2022-10-11T00:19:54.825Z,21.89
2022-10-11T00:20:04.823Z,21.89
2022-10-11T00:20:14.821Z,21.90
2022-10-11T00:20:24.817Z,21.89
2022-10-11T00:20:34.821Z,21.86
2022-10-11T00:20:44.817Z,21.91
2022-10-11T00:20:54.818Z,21.90
2022-10-11T00:21:04.812Z,21.90
2022-10-11T00:21:14.818Z,21.89
2022-10-11T00:21:24.811Z,21.86
2022-10-11T00:21:34.813Z,21.89
2022-10-11T00:21:54.809Z,21.89
2022-10-11T00:22:04.806Z,21.89
2022-10-11T00:22:14.815Z,21.90
2022-10-11T00:22:24.807Z,21.90
2022-10-11T00:22:34.809Z,21.90
2022-10-11T00:22:44.803Z,21.90
2022-10-11T00:22:54.803Z,21.86
2022-10-11T00:23:04.799Z,21.86
2022-10-11T00:23:14.805Z,21.90
2022-10-11T00:23:24.797Z,21.90
2022-10-11T00:23:34.812Z,21.90
2022-10-11T00:23:44.799Z,21.89
2022-10-11T00:23:54.798Z,21.93
2022-10-11T00:24:04.801Z,21.90
2022-10-11T00:24:14.791Z,21.90
2022-10-11T00:24:24.792Z,21.90
2022-10-11T00:24:34.788Z,21.90
2022-10-11T00:24:44.791Z,21.90
2022-10-11T00:24:54.786Z,21.90
2022-10-11T00:25:04.788Z,21.89
2022-10-11T00:25:14.784Z,21.89
2022-10-11T00:25:24.786Z,21.89
2022-10-11T00:25:34.783Z,21.86
2022-10-11T00:25:44.784Z,21.90
2022-10-11T00:25:54.780Z,21.89
2022-10-11T00:26:05.127Z,21.89
2022-10-11T00:26:14.774Z,21.90
2022-10-11T00:26:24.780Z,21.86
2022-10-11T00:26:34.781Z,21.89
2022-10-11T00:26:54.772Z,21.90
2022-10-11T00:27:04.774Z,21.89
2022-10-11T00:27:14.769Z,21.90
2022-10-11T00:27:24.773Z,21.90
2022-10-11T00:27:34.767Z,21.86
2022-10-11T00:27:44.798Z,21.86
2022-10-11T00:27:54.766Z,21.89
2022-10-11T00:28:04.766Z,21.86
2022-10-11T00:28:14.837Z,21.89
2022-10-11T00:28:24.814Z,21.89
2022-10-11T00:28:34.835Z,21.89
2022-10-11T00:28:44.789Z,21.90
2022-10-11T00:28:54.940Z,21.89
2022-10-11T00:29:04.760Z,21.90
2022-10-11T00:29:24.763Z,21.91
2022-10-11T00:29:34.772Z,21.86
2022-10-11T00:29:44.755Z,21.86
2022-10-11T00:29:54.751Z,21.89
2022-10-11T00:30:04.754Z,21.90
2022-10-11T00:30:14.753Z,21.90
2022-10-11T00:30:24.760Z,21.89
2022-10-11T00:30:34.749Z,21.90
2022-10-11T00:30:44.746Z,21.89
2022-10-11T00:30:54.747Z,21.89
2022-10-11T00:31:05.127Z,21.90
2022-10-11T00:31:14.748Z,21.91
2022-10-11T00:31:24.742Z,21.85
2022-10-11T00:31:35.847Z,21.86
2022-10-11T00:31:44.741Z,21.90
2022-10-11T00:31:54.744Z,21.90
2022-10-11T00:32:04.740Z,21.86
2022-10-11T00:32:14.735Z,21.90
2022-10-11T00:32:24.740Z,21.90
2022-10-11T00:32:34.734Z,21.91
2022-10-11T00:32:44.741Z,21.90
2022-10-11T00:32:54.731Z,21.86
2022-10-11T00:33:04.733Z,21.89
2022-10-11T00:33:14.729Z,21.89
2022-10-11T00:33:24.733Z,21.90
2022-10-11T00:33:34.727Z,21.89
2022-10-11T00:33:44.730Z,21.89
2022-10-11T00:33:54.729Z,21.86
2022-10-11T00:34:04.721Z,21.86
2022-10-11T00:34:24.738Z,21.86
2022-10-11T00:34:34.720Z,21.89
2022-10-11T00:34:44.724Z,21.85
2022-10-11T00:34:54.722Z,21.91
2022-10-11T00:35:04.721Z,21.86
2022-10-11T00:35:14.719Z,21.86
2022-10-11T00:35:24.716Z,21.90
2022-10-11T00:35:34.712Z,21.90
2022-10-11T00:35:44.713Z,21.86
2022-10-11T00:35:54.708Z,21.89
2022-10-11T00:36:04.983Z,21.90
2022-10-11T00:36:14.708Z,21.89
2022-10-11T00:36:24.712Z,21.89
2022-10-11T00:36:34.702Z,21.86
2022-10-11T00:36:44.707Z,21.89
2022-10-11T00:36:54.705Z,21.91
2022-10-11T00:37:04.704Z,21.90
2022-10-11T00:37:14.700Z,21.85
2022-10-11T00:37:24.703Z,21.85
2022-10-11T00:37:34.698Z,21.86
2022-10-11T00:37:44.719Z,21.86
2022-10-11T00:37:54.697Z,21.89
2022-10-11T00:38:04.697Z,21.89
2022-10-11T00:38:14.695Z,21.86
2022-10-11T00:38:24.714Z,21.89
2022-10-11T00:38:34.690Z,21.89
2022-10-11T00:38:44.698Z,21.86
2022-10-11T00:38:54.687Z,21.89
2022-10-11T00:39:04.696Z,21.89
2022-10-11T00:39:14.705Z,21.89
2022-10-11T00:39:24.688Z,21.89
2022-10-11T00:39:34.683Z,21.85
2022-10-11T00:39:44.688Z,21.91
2022-10-11T00:39:54.681Z,21.86
2022-10-11T00:40:04.685Z,21.89
2022-10-11T00:40:14.677Z,21.86
2022-10-11T00:40:24.678Z,21.89
2022-10-11T00:40:34.688Z,21.86
2022-10-11T00:40:44.677Z,21.86
2022-10-11T00:40:54.674Z,21.85
2022-10-11T00:41:04.677Z,21.90
2022-10-11T00:41:14.673Z,21.85
2022-10-11T00:41:24.675Z,21.89
2022-10-11T00:41:34.695Z,21.89
2022-10-11T00:41:53.660Z,21.86
2022-10-11T00:42:04.667Z,21.86
2022-10-11T00:42:14.667Z,21.90
2022-10-11T00:42:24.667Z,21.89
2022-10-11T00:42:34.661Z,21.89
2022-10-11T00:42:44.663Z,21.89
2022-10-11T00:42:54.659Z,21.85
2022-10-11T00:43:04.668Z,21.89
2022-10-11T00:43:14.660Z,21.89
2022-10-11T00:43:24.657Z,21.85
2022-10-11T00:43:34.656Z,21.86
2022-10-11T00:43:44.658Z,21.89
2022-10-11T00:43:54.653Z,21.86
2022-10-11T00:44:04.653Z,21.89
2022-10-11T00:44:14.650Z,21.90
2022-10-11T00:44:24.658Z,21.89
2022-10-11T00:44:34.668Z,21.90
2022-10-11T00:44:44.669Z,21.85
2022-10-11T00:44:54.644Z,21.89
2022-10-11T00:45:04.652Z,21.86
2022-10-11T00:45:14.644Z,21.89
2022-10-11T00:45:24.646Z,21.89
2022-10-11T00:45:34.642Z,21.86
2022-10-11T00:45:44.643Z,21.89
2022-10-11T00:45:54.637Z,21.86
2022-10-11T00:46:04.961Z,21.89
2022-10-11T00:46:14.635Z,21.86
2022-10-11T00:46:24.638Z,21.86
2022-10-11T00:46:34.633Z,21.89
2022-10-11T00:46:44.636Z,21.89
2022-10-11T00:46:55.968Z,21.90
2022-10-11T00:47:04.634Z,21.89
2022-10-11T00:47:14.627Z,21.90
2022-10-11T00:47:24.630Z,21.85
2022-10-11T00:47:34.630Z,21.89
2022-10-11T00:47:44.629Z,21.89
2022-10-11T00:47:54.625Z,21.86
2022-10-11T00:48:04.627Z,21.89
2022-10-11T00:48:14.619Z,21.86
2022-10-11T00:48:24.625Z,21.89
2022-10-11T00:48:34.618Z,21.90
2022-10-11T00:48:44.621Z,21.91
2022-10-11T00:48:54.618Z,21.89
2022-10-11T00:49:04.620Z,21.85
2022-10-11T00:49:14.615Z,21.85
2022-10-11T00:49:24.639Z,21.89
2022-10-11T00:49:34.610Z,21.86
2022-10-11T00:49:54.617Z,21.90
2022-10-11T00:50:04.641Z,21.89
2022-10-11T00:50:14.606Z,21.89
2022-10-11T00:50:24.610Z,21.86
2022-10-11T00:50:34.604Z,21.86
2022-10-11T00:50:44.609Z,21.89
2022-10-11T00:50:54.603Z,21.89
2022-10-11T00:51:04.976Z,21.89
2022-10-11T00:51:14.602Z,21.90
2022-10-11T00:51:24.603Z,21.86
2022-10-11T00:51:34.598Z,21.86
2022-10-11T00:51:44.613Z,21.85
2022-10-11T00:51:54.598Z,21.89
2022-10-11T00:52:04.597Z,21.89
2022-10-11T00:52:14.596Z,21.89
2022-10-11T00:52:24.593Z,21.86
2022-10-11T00:52:34.590Z,21.89
2022-10-11T00:52:44.611Z,21.86
2022-10-11T00:52:54.589Z,21.86
2022-10-11T00:53:04.592Z,21.90
2022-10-11T00:53:14.587Z,21.85
2022-10-11T00:53:24.586Z,21.86
2022-10-11T00:53:34.583Z,21.85
2022-10-11T00:53:44.585Z,21.85
2022-10-11T00:53:54.583Z,21.89
2022-10-11T00:54:04.584Z,21.85
2022-10-11T00:54:14.579Z,21.86
2022-10-11T00:54:24.583Z,21.86
2022-10-11T00:54:34.582Z,21.85
2022-10-11T00:54:44.578Z,21.86
2022-10-11T00:54:54.584Z,21.85
2022-10-11T00:55:04.575Z,21.86
2022-10-11T00:55:14.599Z,21.86
2022-10-11T00:55:24.572Z,21.86
2022-10-11T00:55:34.568Z,21.86
2022-10-11T00:55:44.585Z,21.89
2022-10-11T00:55:54.573Z,21.86
2022-10-11T00:56:04.857Z,21.83
2022-10-11T00:56:14.577Z,21.86
2022-10-11T00:56:24.563Z,21.85
2022-10-11T00:56:34.564Z,21.85
2022-10-11T00:56:44.563Z,21.83
2022-10-11T00:56:54.564Z,21.85
2022-10-11T00:57:04.563Z,21.85
2022-10-11T00:57:14.556Z,21.86
2022-10-11T00:57:24.562Z,21.85
2022-10-11T00:57:34.555Z,21.89
2022-10-11T00:57:44.557Z,21.85
2022-10-11T00:57:54.560Z,21.86
2022-10-11T00:58:04.556Z,21.86
2022-10-11T00:58:14.553Z,21.90
2022-10-11T00:58:24.558Z,21.90
2022-10-11T00:58:34.546Z,21.86
2022-10-11T00:58:44.563Z,21.89
2022-10-11T00:58:54.556Z,21.89
2022-10-11T00:59:04.548Z,21.90
2022-10-11T00:59:14.555Z,21.85
2022-10-11T00:59:24.545Z,21.86
2022-10-11T00:59:34.542Z,21.86
2022-10-11T00:59:44.544Z,21.86
2022-10-11T00:59:54.538Z,21.90
2022-10-11T01:00:04.553Z,21.86
2022-10-11T01:00:14.534Z,21.86
2022-10-11T01:00:34.547Z,21.85
2022-10-11T01:00:44.537Z,21.89
2022-10-11T01:00:54.571Z,21.86
2022-10-11T01:01:04.595Z,21.86
2022-10-11T01:01:14.590Z,21.86
2022-10-11T01:01:24.583Z,21.89
2022-10-11T01:01:34.609Z,21.85
2022-10-11T01:01:44.585Z,21.90
2022-10-11T01:01:54.526Z,21.83
2022-10-11T01:02:04.526Z,21.86
2022-10-11T01:02:14.522Z,21.89
2022-10-11T01:02:24.524Z,21.86
2022-10-11T01:02:34.519Z,21.85
2022-10-11T01:02:44.524Z,21.90
2022-10-11T01:02:54.519Z,21.83
2022-10-11T01:03:04.519Z,21.86
2022-10-11T01:03:14.515Z,21.90
2022-10-11T01:03:24.517Z,21.86
2022-10-11T01:03:34.514Z,21.86
2022-10-11T01:03:44.514Z,21.89
2022-10-11T01:03:54.527Z,21.85
2022-10-11T01:04:04.512Z,21.89
2022-10-11T01:04:14.506Z,21.83
2022-10-11T01:04:24.513Z,21.86
2022-10-11T01:04:34.508Z,21.86
2022-10-11T01:04:44.508Z,21.83
2022-10-11T01:05:17.829Z,21.82
2022-10-11T01:06:24.475Z,21.85
2022-10-11T01:06:35.472Z,21.83
2022-10-11T01:06:45.473Z,21.85
2022-10-11T01:06:55.467Z,21.86
2022-10-11T01:07:05.469Z,21.85
2022-10-11T01:07:15.468Z,21.85
2022-10-11T01:07:25.469Z,21.86
2022-10-11T01:07:35.465Z,21.86
2022-10-11T01:07:45.465Z,21.83
2022-10-11T01:07:55.477Z,21.85
2022-10-11T01:08:05.464Z,21.86
2022-10-11T01:08:15.458Z,21.83
2022-10-11T01:08:25.462Z,21.83
2022-10-11T01:08:35.459Z,21.83
2022-10-11T01:08:45.471Z,21.85
2022-10-11T01:08:55.468Z,21.86
2022-10-11T01:09:05.462Z,21.83
2022-10-11T01:09:15.452Z,21.85
2022-10-11T01:09:25.470Z,21.83
2022-10-11T01:09:35.450Z,21.86
2022-10-11T01:09:45.452Z,21.85
2022-10-11T01:09:55.447Z,21.85
2022-10-11T01:10:05.458Z,21.89
2022-10-11T01:10:15.449Z,21.89
2022-10-11T01:10:25.449Z,21.86
2022-10-11T01:10:35.446Z,21.86
2022-10-11T01:10:45.446Z,21.86
2022-10-11T01:10:55.443Z,21.86
2022-10-11T01:11:05.443Z,21.85
2022-10-11T01:11:15.437Z,21.83
2022-10-11T01:11:25.442Z,21.85
2022-10-11T01:11:35.437Z,21.86
2022-10-11T01:11:45.439Z,21.86
2022-10-11T01:11:55.433Z,21.86
2022-10-11T01:12:05.435Z,21.85
2022-10-11T01:12:15.435Z,21.86
2022-10-11T01:12:25.435Z,21.85
2022-10-11T01:12:35.429Z,21.85
2022-10-11T01:12:45.432Z,21.85
2022-10-11T01:12:55.452Z,21.86
2022-10-11T01:13:05.438Z,21.82
2022-10-11T01:13:15.431Z,21.85
2022-10-11T01:13:25.427Z,21.83
2022-10-11T01:13:35.443Z,21.86
2022-10-11T01:13:45.422Z,21.85
2022-10-11T01:13:55.424Z,21.85
2022-10-11T01:14:05.420Z,21.89
2022-10-11T01:14:15.426Z,21.85
2022-10-11T01:14:25.417Z,21.83
2022-10-11T01:14:35.419Z,21.85
2022-10-11T01:14:45.412Z,21.82
2022-10-11T01:14:55.418Z,21.86
2022-10-11T01:15:05.411Z,21.85
2022-10-11T01:15:15.414Z,21.85
2022-10-11T01:15:25.408Z,21.85
2022-10-11T01:15:35.412Z,21.86
2022-10-11T01:15:45.415Z,21.86
2022-10-11T01:15:55.408Z,21.85
2022-10-11T01:16:05.846Z,21.86
2022-10-11T01:16:15.406Z,21.83
2022-10-11T01:16:25.402Z,21.86
2022-10-11T01:16:35.405Z,21.83
2022-10-11T01:16:45.398Z,21.83
2022-10-11T01:16:55.401Z,21.86
2022-10-11T01:17:05.398Z,21.86
2022-10-11T01:17:15.406Z,21.85
2022-10-11T01:17:25.396Z,21.85
2022-10-11T01:17:35.398Z,21.85
2022-10-11T01:17:45.397Z,21.83
2022-10-11T01:17:55.396Z,21.83
2022-10-11T01:18:05.392Z,21.86
2022-10-11T01:18:15.394Z,21.83
2022-10-11T01:18:25.390Z,21.83
2022-10-11T01:18:35.392Z,21.83
2022-10-11T01:18:45.409Z,21.83
2022-10-11T01:19:05.386Z,21.82
2022-10-11T01:19:15.388Z,21.85
2022-10-11T01:19:25.380Z,21.82
2022-10-11T01:19:35.386Z,21.83
2022-10-11T01:19:45.380Z,21.83
2022-10-11T01:19:55.380Z,21.83
2022-10-11T01:20:05.379Z,21.89
2022-10-11T01:20:15.400Z,21.82
2022-10-11T01:20:25.375Z,21.81
2022-10-11T01:20:35.382Z,21.82
2022-10-11T01:20:45.373Z,21.82
2022-10-11T01:20:55.376Z,21.82
2022-10-11T01:21:05.368Z,21.86
2022-10-11T01:21:15.371Z,21.83
2022-10-11T01:21:25.369Z,21.85
2022-10-11T01:21:35.387Z,21.83
2022-10-11T01:21:55.366Z,21.85
2022-10-11T01:22:05.364Z,21.82
2022-10-11T01:22:15.367Z,21.82
2022-10-11T01:22:25.362Z,21.83
2022-10-11T01:22:35.365Z,21.85
2022-10-11T01:22:45.361Z,21.85
2022-10-11T01:22:55.362Z,21.85
2022-10-11T01:23:05.361Z,21.83
2022-10-11T01:23:15.358Z,21.83
2022-10-11T01:23:25.354Z,21.83
2022-10-11T01:23:35.356Z,21.86
2022-10-11T01:23:45.352Z,21.82
2022-10-11T01:23:55.368Z,21.83
2022-10-11T01:24:08.604Z,21.85
2022-10-11T01:24:15.353Z,21.85
2022-10-11T01:24:35.349Z,21.83
2022-10-11T01:24:45.362Z,21.85
2022-10-11T01:24:55.348Z,21.83
2022-10-11T01:25:05.344Z,21.83
2022-10-11T01:25:15.342Z,21.83
2022-10-11T01:25:25.342Z,21.81
2022-10-11T01:25:35.341Z,21.82
2022-10-11T01:25:45.339Z,21.86
2022-10-11T01:25:55.339Z,21.85
2022-10-11T01:26:05.773Z,21.83
2022-10-11T01:26:15.340Z,21.82
2022-10-11T01:26:25.333Z,21.83
2022-10-11T01:26:35.334Z,21.82
2022-10-11T01:26:45.329Z,21.82
2022-10-11T01:26:55.332Z,21.85
2022-10-11T01:27:05.327Z,21.83
2022-10-11T01:27:25.328Z,21.82
2022-10-11T01:27:35.328Z,21.86
2022-10-11T01:27:45.322Z,21.82
2022-10-11T01:27:55.326Z,21.83
2022-10-11T01:28:05.322Z,21.85
2022-10-11T01:28:15.429Z,21.83
2022-10-11T01:28:25.360Z,21.82
2022-10-11T01:28:35.400Z,21.82
2022-10-11T01:28:45.397Z,21.83
2022-10-11T01:28:55.342Z,21.83
2022-10-11T01:29:05.316Z,21.83
2022-10-11T01:29:15.313Z,21.85
2022-10-11T01:29:25.315Z,21.85
2022-10-11T01:29:35.314Z,21.82
2022-10-11T01:29:45.326Z,21.82
2022-10-11T01:29:55.316Z,21.83
2022-10-11T01:30:15.311Z,21.83
2022-10-11T01:30:25.319Z,21.85
2022-10-11T01:30:35.306Z,21.85
2022-10-11T01:30:45.302Z,21.85
2022-10-11T01:30:55.305Z,21.82
2022-10-11T01:31:05.301Z,21.83
2022-10-11T01:31:15.303Z,21.85
2022-10-11T01:31:25.300Z,21.85
2022-10-11T01:31:35.300Z,21.82
2022-10-11T01:31:45.295Z,21.85
2022-10-11T01:31:55.305Z,21.85
2022-10-11T01:32:05.295Z,21.86
2022-10-11T01:32:15.308Z,21.83
2022-10-11T01:32:25.292Z,21.82
2022-10-11T01:32:35.292Z,21.83
2022-10-11T01:32:45.288Z,21.85
2022-10-11T01:32:55.293Z,21.85
2022-10-11T01:33:15.290Z,21.83
2022-10-11T01:33:25.285Z,21.83
2022-10-11T01:33:35.288Z,21.82
2022-10-11T01:33:45.286Z,21.82
2022-10-11T01:33:55.285Z,21.82
2022-10-11T01:34:05.281Z,21.82
2022-10-11T01:34:15.285Z,21.83
2022-10-11T01:34:25.280Z,21.83
2022-10-11T01:34:35.282Z,21.83
2022-10-11T01:34:45.276Z,21.83
2022-10-11T01:34:55.289Z,21.83
2022-10-11T01:35:05.276Z,21.82
2022-10-11T01:35:15.278Z,21.82
2022-10-11T01:35:25.274Z,21.82
2022-10-11T01:35:35.275Z,21.85
2022-10-11T01:35:55.274Z,21.82
2022-10-11T01:36:05.677Z,21.81
2022-10-11T01:36:15.270Z,21.82
2022-10-11T01:36:25.267Z,21.85
2022-10-11T01:36:35.266Z,21.85
2022-10-11T01:36:45.263Z,21.82
2022-10-11T01:36:55.264Z,21.79
2022-10-11T01:37:05.262Z,21.81
2022-10-11T01:37:15.262Z,21.83
2022-10-11T01:37:25.262Z,21.81
2022-10-11T01:37:35.260Z,21.81
2022-10-11T01:37:45.256Z,21.82
2022-10-11T01:37:55.297Z,21.81
2022-10-11T01:38:05.253Z,21.81
2022-10-11T01:38:15.257Z,21.81
2022-10-11T01:38:25.251Z,21.82
2022-10-11T01:38:45.248Z,21.82
2022-10-11T01:38:55.261Z,21.82
2022-10-11T01:39:05.246Z,21.82
2022-10-11T01:39:15.250Z,21.82
2022-10-11T01:39:25.245Z,21.82
2022-10-11T01:39:35.253Z,21.82
2022-10-11T01:39:45.245Z,21.82
2022-10-11T01:39:55.258Z,21.83
2022-10-11T01:40:05.237Z,21.81
2022-10-11T01:40:15.241Z,21.83
2022-10-11T01:40:25.237Z,21.83
2022-10-11T01:40:35.243Z,21.83
2022-10-11T01:40:45.238Z,21.82
2022-10-11T01:40:55.233Z,21.83
2022-10-11T01:41:15.233Z,21.82
2022-10-11T01:41:25.229Z,21.81
2022-10-11T01:41:35.252Z,21.82
2022-10-11T01:41:45.229Z,21.82
2022-10-11T01:41:55.229Z,21.83
2022-10-11T01:42:05.225Z,21.81
2022-10-11T01:42:15.229Z,21.81
2022-10-11T01:42:25.223Z,21.83
2022-10-11T01:42:35.225Z,21.82
2022-10-11T01:42:45.239Z,21.83
2022-10-11T01:42:55.226Z,21.83
2022-10-11T01:43:05.216Z,21.81
2022-10-11T01:43:15.221Z,21.82
2022-10-11T01:43:25.217Z,21.83
2022-10-11T01:43:45.212Z,21.82
2022-10-11T01:43:55.214Z,21.86
2022-10-11T01:44:05.209Z,21.81
2022-10-11T01:44:15.212Z,21.81
2022-10-11T01:44:25.210Z,21.83
2022-10-11T01:44:35.210Z,21.81
2022-10-11T01:44:45.206Z,21.82
2022-10-11T01:44:55.207Z,21.83
2022-10-11T01:45:05.203Z,21.83
2022-10-11T01:45:15.208Z,21.81
2022-10-11T01:45:25.203Z,21.81
2022-10-11T01:45:35.205Z,21.81
2022-10-11T01:45:45.199Z,21.83
2022-10-11T01:45:55.202Z,21.83
2022-10-11T01:46:15.199Z,21.83
2022-10-11T01:46:25.196Z,21.82
2022-10-11T01:46:35.197Z,21.83
2022-10-11T01:46:45.211Z,21.81
2022-10-11T01:46:55.196Z,21.81
2022-10-11T01:47:05.190Z,21.83
2022-10-11T01:47:15.193Z,21.82
2022-10-11T01:47:25.191Z,21.81
2022-10-11T01:47:35.201Z,21.82
2022-10-11T01:47:45.186Z,21.82
2022-10-11T01:47:55.190Z,21.82
2022-10-11T01:48:05.185Z,21.82
2022-10-11T01:48:15.187Z,21.81
2022-10-11T01:48:25.182Z,21.82
2022-10-11T01:48:45.179Z,21.83
2022-10-11T01:48:55.182Z,21.83
2022-10-11T01:49:05.177Z,21.83
2022-10-11T01:49:15.179Z,21.82
2022-10-11T01:49:25.175Z,21.81
2022-10-11T01:49:35.175Z,21.82
2022-10-11T01:49:45.175Z,21.81
2022-10-11T01:49:55.175Z,21.82
2022-10-11T01:50:05.171Z,21.82
2022-10-11T01:50:15.178Z,21.81
2022-10-11T01:50:25.168Z,21.81
2022-10-11T01:50:35.168Z,21.82
2022-10-11T01:50:45.164Z,21.82
2022-10-11T01:50:55.168Z,21.81
2022-10-11T01:51:15.166Z,21.81
2022-10-11T01:51:25.160Z,21.81
2022-10-11T01:51:35.164Z,21.83
2022-10-11T01:51:47.291Z,21.82
2022-10-11T01:51:55.175Z,21.79
2022-10-11T01:52:05.154Z,21.81
2022-10-11T01:52:15.156Z,21.81
2022-10-11T01:52:25.155Z,21.82
2022-10-11T01:52:35.160Z,21.82
2022-10-11T01:52:45.151Z,21.82
2022-10-11T01:52:55.154Z,21.82
2022-10-11T01:53:05.158Z,21.82
2022-10-11T01:53:15.155Z,21.79
2022-10-11T01:53:25.149Z,21.82
2022-10-11T01:53:35.150Z,21.77
2022-10-11T01:53:45.143Z,21.79
2022-10-11T01:53:55.149Z,21.81
2022-10-11T01:54:15.144Z,21.81
2022-10-11T01:54:25.141Z,21.81
2022-10-11T01:55:03.983Z,21.81
2022-10-11T01:55:12.422Z,21.81
2022-10-11T01:55:17.089Z,21.77
2022-10-11T01:55:27.085Z,21.82
2022-10-11T01:55:37.088Z,21.79
2022-10-11T01:55:47.093Z,21.81
2022-10-11T01:55:57.085Z,21.82
2022-10-11T01:56:07.823Z,21.79
2022-10-11T01:56:17.095Z,21.82
2022-10-11T01:56:27.078Z,21.82
2022-10-11T01:56:37.084Z,21.82
2022-10-11T01:56:47.077Z,21.82
2022-10-11T01:56:57.078Z,21.82
2022-10-11T01:57:07.078Z,21.81
2022-10-11T01:57:17.070Z,21.81
2022-10-11T01:57:27.074Z,21.82
2022-10-11T01:57:37.071Z,21.81
2022-10-11T01:57:47.089Z,21.83
2022-10-11T01:57:57.069Z,21.81
2022-10-11T01:58:07.083Z,21.82
2022-10-11T01:58:17.064Z,21.81
2022-10-11T01:58:27.068Z,21.79
2022-10-11T01:58:37.062Z,21.85
2022-10-11T01:58:47.064Z,21.82
2022-10-11T01:58:57.060Z,21.81
2022-10-11T01:59:07.062Z,21.79
2022-10-11T01:59:17.059Z,21.82
2022-10-11T01:59:27.059Z,21.81
2022-10-11T01:59:37.055Z,21.81
2022-10-11T01:59:47.057Z,21.81
2022-10-11T01:59:57.055Z,21.82
2022-10-11T02:00:07.055Z,21.82
2022-10-11T02:00:17.057Z,21.82
2022-10-11T02:00:27.053Z,21.79
2022-10-11T02:00:37.048Z,21.79
2022-10-11T02:00:47.053Z,21.82
2022-10-11T02:00:57.049Z,21.82
2022-10-11T02:01:07.120Z,21.81
2022-10-11T02:01:17.128Z,21.81
2022-10-11T02:01:27.176Z,21.81
2022-10-11T02:01:37.158Z,21.81
2022-10-11T02:01:47.150Z,21.81
2022-10-11T02:01:57.105Z,21.83
2022-10-11T02:02:07.044Z,21.79
2022-10-11T02:02:17.041Z,21.79
2022-10-11T02:02:27.040Z,21.81
2022-10-11T02:02:37.039Z,21.81
2022-10-11T02:02:47.036Z,21.82
2022-10-11T02:02:57.033Z,21.82
2022-10-11T02:03:07.036Z,21.83
2022-10-11T02:03:17.040Z,21.82
2022-10-11T02:03:27.036Z,21.82
2022-10-11T02:03:37.029Z,21.85
2022-10-11T02:03:47.034Z,21.82
2022-10-11T02:03:57.038Z,21.81
2022-10-11T02:04:07.029Z,21.79
2022-10-11T02:04:17.022Z,21.83
2022-10-11T02:04:27.035Z,21.81
2022-10-11T02:04:37.022Z,21.77
2022-10-11T02:04:47.023Z,21.81
2022-10-11T02:04:57.025Z,21.81
2022-10-11T02:05:07.021Z,21.81
2022-10-11T02:05:27.019Z,21.82
2022-10-11T02:05:37.014Z,21.79
2022-10-11T02:05:47.017Z,21.82
2022-10-11T02:05:57.012Z,21.81
2022-10-11T02:06:07.586Z,21.81
2022-10-11T02:06:17.009Z,21.79
2022-10-11T02:06:27.014Z,21.81
2022-10-11T02:06:37.012Z,21.79
2022-10-11T02:06:47.012Z,21.77
2022-10-11T02:06:57.011Z,21.81
2022-10-11T02:07:07.008Z,21.81
2022-10-11T02:07:17.003Z,21.82
2022-10-11T02:07:27.004Z,21.82
2022-10-11T02:07:37.017Z,21.79
2022-10-11T02:07:47.003Z,21.79
2022-10-11T02:07:56.996Z,21.81
2022-10-11T02:08:07.002Z,21.82
2022-10-11T02:08:16.997Z,21.83
2022-10-11T02:08:26.999Z,21.81
2022-10-11T02:08:36.995Z,21.82
2022-10-11T02:08:46.996Z,21.81
2022-10-11T02:08:56.992Z,21.83
2022-10-11T02:09:08.220Z,21.81
2022-10-11T02:09:16.990Z,21.81
2022-10-11T02:09:26.992Z,21.77
2022-10-11T02:09:36.989Z,21.77
2022-10-11T02:09:46.988Z,21.82
2022-10-11T02:09:56.984Z,21.82
2022-10-11T02:10:06.986Z,21.79
2022-10-11T02:10:16.984Z,21.82
2022-10-11T02:10:26.984Z,21.81
2022-10-11T02:10:36.986Z,21.77
2022-10-11T02:10:46.985Z,21.81
2022-10-11T02:10:56.977Z,21.81
2022-10-11T02:11:06.982Z,21.79
2022-10-11T02:11:16.977Z,21.81
2022-10-11T02:11:26.980Z,21.79
2022-10-11T02:11:36.972Z,21.79
2022-10-11T02:11:46.976Z,21.82
2022-10-11T02:11:56.973Z,21.77
2022-10-11T02:12:06.971Z,21.81
2022-10-11T02:12:16.971Z,21.81
2022-10-11T02:12:26.970Z,21.79
2022-10-11T02:12:36.967Z,21.79
2022-10-11T02:12:46.978Z,21.82
2022-10-11T02:12:56.963Z,21.81
2022-10-11T02:13:06.966Z,21.82
2022-10-11T02:13:16.964Z,21.81
2022-10-11T02:13:26.966Z,21.82
2022-10-11T02:13:36.960Z,21.82
2022-10-11T02:13:46.962Z,21.79
2022-10-11T02:13:56.956Z,21.81
2022-10-11T02:14:06.959Z,21.79
2022-10-11T02:14:16.957Z,21.81
2022-10-11T02:14:26.955Z,21.81
2022-10-11T02:14:36.954Z,21.79